Westville Lake, Ohio
Current Conditions -  °F | °C
As of 11:51 PM on Saturday 20 Dec 2014 (Local Time) from KCAK Reporting Station
Light Snow Light Snow  
Wind Chill: -2°   Ceiling: 2800
Heat Index: -2°   Visibility: 8mi
Dew Point: -6°   Wind: 0mph
Humidity: 75%   Direction: NA
Pressure: 30.26"   Gusts: NA
Location:  40.915°N, 80.9865°W
Report Text: KCAK 210451Z 00000KT 8SM -SN OVC028 M02/M06 A3026 RMK AO2 SNB47 SLP259 P0000 T10171056 410111022
Loading
Personal Weather Stations






























Interactive Weather Map New forecast layout! Learn more

10-Day Weather Forecast

Advertisements
Track Severe Weather on mobile